Air Quality Table

TIMESTAMP NO2 SO2 O3 PM10 PM2.5 TEMP HUM AIRPRES WS WD NO
2022-08-15 17:00 2.31 µg/m3 0.59 µg/m3 115.71 µg/m3 N/A N/A 29.47 °C 74.29 % 997.84 mbar 4.04 m/s 139.03 Deg 0.4 µg/m3
2022-08-15 09:00 5.83 µg/m3 0.7 µg/m3 100.45 µg/m3 N/A N/A 25.96 °C 87.66 % 997.03 mbar 2.73 m/s 78.59 Deg 0.41 µg/m3
2022-08-15 01:00 3.02 µg/m3 0.44 µg/m3 111.6 µg/m3 N/A N/A 26.94 °C 83.7 % 996.59 mbar 2.36 m/s 158.72 Deg 0.18 µg/m3
2022-08-14 17:00 2.16 µg/m3 0.26 µg/m3 118.31 µg/m3 N/A N/A 27.87 °C 78.9 % 996.73 mbar 3.33 m/s 234.38 Deg 0.51 µg/m3
2022-08-14 09:00 1.93 µg/m3 0.22 µg/m3 106.78 µg/m3 N/A N/A 26.92 °C 88.35 % 997.33 mbar 3.88 m/s 177.31 Deg 0.29 µg/m3
2022-08-14 01:00 1.15 µg/m3 0.53 µg/m3 112.22 µg/m3 N/A N/A 27.22 °C 78.18 % 998.86 mbar 5.82 m/s 179.18 Deg 0.29 µg/m3
2022-08-13 17:00 3.89 µg/m3 0.65 µg/m3 119.73 µg/m3 N/A N/A 27.56 °C 75.16 % 1,000.18 mbar 5.06 m/s 213.32 Deg 0.83 µg/m3
2022-08-13 09:00 8.21 µg/m3 0.8 µg/m3 109.15 µg/m3 N/A N/A 25.62 °C 78.44 % 999.50 mbar 2.65 m/s 221.09 Deg 0.64 µg/m3
2022-08-13 01:00 6.59 µg/m3 0.64 µg/m3 119.92 µg/m3 N/A N/A 26.59 °C 76.42 % 999.26 mbar 5.11 m/s 232.43 Deg 0.51 µg/m3
2022-08-12 17:00 7.97 µg/m3 0.61 µg/m3 121.2 µg/m3 N/A N/A 26.76 °C 72.79 % 999.32 mbar 4.29 m/s 212.74 Deg 1.34 µg/m3
2022-08-12 09:00 5.16 µg/m3 0.35 µg/m3 90.43 µg/m3 N/A N/A 25.46 °C 81.83 % 998.95 mbar 2.05 m/s 191.84 Deg 0.41 µg/m3
2022-08-12 01:00 7.1 µg/m3 0.25 µg/m3 76.83 µg/m3 N/A N/A 25.43 °C 80.44 % 999.59 mbar 2.06 m/s 142.31 Deg 0.43 µg/m3
2022-08-11 17:00 4.91 µg/m3 0.38 µg/m3 101.95 µg/m3 N/A N/A 26.89 °C 75.09 % 1,000.11 mbar 3.6 m/s 110.62 Deg 0.85 µg/m3
2022-08-11 09:00 4.65 µg/m3 0.3 µg/m3 98.52 µg/m3 N/A N/A 25.98 °C 79.61 % 999.78 mbar 2.24 m/s 141.79 Deg 0.47 µg/m3
2022-08-11 01:00 7.58 µg/m3 0.37 µg/m3 93.18 µg/m3 N/A N/A 26.45 °C 82.65 % 1,000.41 mbar 1.73 m/s 175.69 Deg 0.32 µg/m3
2022-08-10 17:00 1.54 µg/m3 0.5 µg/m3 108.56 µg/m3 N/A N/A 27.38 °C 78.81 % 1,000.96 mbar 2.97 m/s 194.65 Deg 0.37 µg/m3
2022-08-10 09:00 1.36 µg/m3 0.43 µg/m3 102.25 µg/m3 N/A N/A 26.03 °C 89.87 % 1,000.61 mbar 1.07 m/s 240.72 Deg 0.13 µg/m3
2022-08-10 01:00 0.43 µg/m3 0.41 µg/m3 104.89 µg/m3 N/A N/A 26.59 °C 86.38 % 1,000.97 mbar 1.64 m/s 171.6 Deg 0.08 µg/m3
2022-08-09 17:00 0.2 µg/m3 0.64 µg/m3 103.05 µg/m3 N/A N/A 28.26 °C 79.59 % 1,001.10 mbar 3.54 m/s 153.62 Deg 0.13 µg/m3
2022-08-09 09:00 1.62 µg/m3 0.93 µg/m3 133.48 µg/m3 N/A N/A 26.43 °C 87.25 % 1,000.34 mbar 0.91 m/s 183.33 Deg 0.09 µg/m3

It is to be noted that the data is provisional and subject to quality assurance procedures. For validated data kindly refer your request to contact.air@era.org.mt